Time;durP1;ratioP1;P1;durP2;ratioP2;P2;SDS_P1;SDS_P2;PMS_P1;PMS_P2;Temp;Humidity;BMP_temperature;BMP_pressure;BME280_temperature;BME280_humidity;BME280_pressure;Samples;Min_cycle;Max_cycle;Signal;HPM_P1;HPM_P2
2022/09/17 00:01:40;;;;;;;4.25;1.42;;;22.90;77.20;;;;;;5126331;27;20226;-76
2022/09/17 00:04:11;;;;;;;3.55;1.02;;;22.90;77.30;;;;;;5133582;27;20237;-77
2022/09/17 00:06:39;;;;;;;6.32;1.25;;;22.90;77.60;;;;;;5126442;27;20226;-75
2022/09/17 00:09:08;;;;;;;4.43;1.00;;;22.80;77.60;;;;;;5131119;27;20192;-75
2022/09/17 00:11:39;;;;;;;4.00;0.90;;;22.80;78.00;;;;;;5127665;27;20610;-75
2022/09/17 00:14:09;;;;;;;4.15;1.05;;;22.80;78.20;;;;;;5127671;27;20196;-76
2022/09/17 00:16:41;;;;;;;6.80;1.02;;;22.80;78.00;;;;;;5127924;27;20201;-75
2022/09/17 00:19:14;;;;;;;5.13;0.95;;;22.80;77.90;;;;;;5130828;27;20216;-75
2022/09/17 00:21:42;;;;;;;3.05;1.42;;;22.70;77.80;;;;;;5126112;27;20658;-75
2022/09/17 00:24:12;;;;;;;4.15;0.90;;;22.70;77.90;;;;;;5126782;27;20637;-77
2022/09/17 00:26:41;;;;;;;2.80;0.85;;;22.70;78.30;;;;;;5124952;27;20554;-75
2022/09/17 00:29:10;;;;;;;3.58;0.93;;;22.70;78.50;;;;;;5126230;27;20226;-75
2022/09/17 00:31:40;;;;;;;4.57;1.15;;;22.70;78.70;;;;;;5124810;27;20275;-75
2022/09/17 00:34:09;;;;;;;3.25;1.00;;;22.60;79.00;;;;;;5129684;27;20692;-77
2022/09/17 00:36:38;;;;;;;5.88;0.85;;;22.50;79.10;;;;;;5122670;27;20201;-75
2022/09/17 00:39:08;;;;;;;2.40;0.75;;;22.60;79.20;;;;;;5124369;27;20192;-77
2022/09/17 00:41:38;;;;;;;2.58;1.02;;;22.50;79.30;;;;;;5125237;27;20250;-75
2022/09/17 00:44:41;;;;;;;4.90;1.40;;;22.50;79.70;;;;;;5128233;27;20184;-76
2022/09/17 00:47:17;;;;;;;1.75;1.40;;;22.40;79.80;;;;;;5117384;27;20710;-75
2022/09/17 00:49:47;;;;;;;2.75;1.13;;;22.40;80.10;;;;;;5121885;27;20250;-75
2022/09/17 00:52:20;;;;;;;6.50;1.10;;;22.30;80.30;;;;;;5125941;27;20250;-75
2022/09/17 00:54:55;;;;;;;4.32;1.10;;;22.30;80.40;;;;;;5129831;27;20653;-75
2022/09/17 00:57:23;;;;;;;4.00;1.63;;;22.30;80.50;;;;;;5125208;27;20188;-75
2022/09/17 00:59:52;;;;;;;6.22;1.33;;;22.20;80.70;;;;;;5127285;27;20188;-76
2022/09/17 01:02:22;;;;;;;6.03;1.48;;;22.20;81.00;;;;;;5119440;27;20737;-75
2022/09/17 01:04:51;;;;;;;1.92;1.10;;;22.20;80.90;;;;;;5130248;27;20216;-76
2022/09/17 01:07:35;;;;;;;2.58;1.15;;;22.10;80.60;;;;;;5126607;27;20192;-75
2022/09/17 01:10:14;;;;;;;3.45;1.35;;;22.20;80.60;;;;;;5123048;27;20184;-75
2022/09/17 01:13:07;;;;;;;4.65;1.10;;;22.20;80.80;;;;;;5123687;27;20280;-75
2022/09/17 01:15:40;;;;;;;4.32;1.10;;;22.10;80.90;;;;;;5126896;27;20240;-75
2022/09/17 01:18:25;;;;;;;3.10;1.02;;;22.10;81.10;;;;;;5128586;27;20192;-75
2022/09/17 01:21:25;;;;;;;3.38;0.98;;;22.10;81.40;;;;;;5125310;27;20200;-75
2022/09/17 01:24:33;;;;;;;4.90;1.10;;;22.10;81.60;;;;;;5119392;27;20270;-77
2022/09/17 01:27:30;;;;;;;1.73;0.82;;;22.00;81.60;;;;;;5128509;27;20242;-75
2022/09/17 01:30:21;;;;;;;3.78;1.00;;;22.00;81.80;;;;;;5125414;27;20551;-75
2022/09/17 01:32:57;;;;;;;1.70;1.15;;;22.00;82.00;;;;;;5121899;27;20228;-75
2022/09/17 01:35:34;;;;;;;4.50;1.00;;;22.00;82.20;;;;;;5121587;27;20764;-75
2022/09/17 01:38:06;;;;;;;3.40;0.90;;;21.90;82.20;;;;;;5120608;27;20192;-75
2022/09/17 01:40:39;;;;;;;3.10;0.80;;;21.90;82.30;;;;;;5121853;27;20605;-75
2022/09/17 01:43:12;;;;;;;1.80;0.90;;;21.90;82.40;;;;;;5123316;27;20188;-75
2022/09/17 01:45:47;;;;;;;4.57;0.80;;;21.80;82.80;;;;;;5125268;27;20231;-75
2022/09/17 01:48:19;;;;;;;4.13;1.05;;;21.80;83.00;;;;;;5129202;28;20635;-75
2022/09/17 01:50:53;;;;;;;4.38;1.00;;;21.80;83.10;;;;;;5124920;28;20188;-75
2022/09/17 01:53:25;;;;;;;4.15;0.98;;;21.80;84.00;;;;;;5124985;27;20234;-75
2022/09/17 01:55:58;;;;;;;6.05;1.65;;;21.70;83.00;;;;;;5120608;28;20255;-76
2022/09/17 01:58:28;;;;;;;2.03;0.90;;;21.70;83.20;;;;;;5123682;27;20299;-75
2022/09/17 02:01:02;;;;;;;3.15;0.70;;;21.70;83.30;;;;;;5125013;27;20238;-76
2022/09/17 02:03:35;;;;;;;6.03;1.23;;;21.70;83.30;;;;;;5129384;28;20200;-75
2022/09/17 02:06:10;;;;;;;4.35;0.90;;;21.60;83.10;;;;;;5128887;27;20210;-75
2022/09/17 02:08:47;;;;;;;1.67;0.80;;;21.60;83.00;;;;;;5130074;27;20650;-75
2022/09/17 02:11:16;;;;;;;3.05;1.10;;;21.60;83.10;;;;;;5131584;27;20192;-75
2022/09/17 02:13:51;;;;;;;4.32;0.85;;;21.60;83.10;;;;;;5132685;27;20241;-75
2022/09/17 02:16:24;;;;;;;2.90;0.95;;;21.60;83.10;;;;;;5127715;27;20276;-75
2022/09/17 02:19:01;;;;;;;3.45;0.95;;;21.60;83.00;;;;;;5129115;27;20261;-75
2022/09/17 02:21:36;;;;;;;2.97;1.55;;;21.60;83.00;;;;;;5128951;27;20632;-75
2022/09/17 02:24:11;;;;;;;3.05;1.20;;;21.60;83.30;;;;;;5131213;27;20281;-75
2022/09/17 02:26:45;;;;;;;3.17;0.80;;;21.60;83.10;;;;;;5126627;27;21890;-75
2022/09/17 02:29:23;;;;;;;3.08;0.90;;;21.60;83.20;;;;;;5131293;27;20283;-76
2022/09/17 02:31:51;;;;;;;4.82;1.35;;;21.50;83.20;;;;;;5128977;27;20236;-75
2022/09/17 02:34:24;;;;;;;2.10;1.00;;;21.50;83.30;;;;;;5130918;27;20278;-75
2022/09/17 02:36:52;;;;;;;4.20;1.08;;;21.50;83.30;;;;;;5129246;27;20705;-75
2022/09/17 02:39:21;;;;;;;2.08;0.98;;;21.50;83.40;;;;;;5126949;27;20201;-75
2022/09/17 02:41:56;;;;;;;5.28;1.13;;;21.40;83.50;;;;;;5129570;27;20242;-75
2022/09/17 02:44:32;;;;;;;3.28;1.10;;;21.40;83.60;;;;;;5133255;27;20272;-75
2022/09/17 02:47:15;;;;;;;1.90;0.80;;;21.40;83.60;;;;;;5122896;27;20180;-75
2022/09/17 02:50:08;;;;;;;8.63;1.30;;;21.40;83.90;;;;;;5128229;27;20624;-75
2022/09/17 02:52:53;;;;;;;3.08;0.98;;;21.40;83.90;;;;;;5130291;27;20246;-75
2022/09/17 02:55:30;;;;;;;8.45;1.13;;;21.40;83.60;;;;;;5124062;27;20307;-76
2022/09/17 02:58:05;;;;;;;1.38;0.90;;;21.40;83.60;;;;;;5124597;27;21009;-75
2022/09/17 03:00:34;;;;;;;5.10;1.35;;;21.40;83.50;;;;;;5129258;27;20224;-75
2022/09/17 03:03:08;;;;;;;2.80;0.80;;;21.40;83.50;;;;;;5132096;27;20218;-75
2022/09/17 03:05:41;;;;;;;3.40;1.05;;;21.40;83.30;;;;;;5129540;27;20632;-75
2022/09/17 03:08:13;;;;;;;1.23;0.85;;;21.40;83.30;;;;;;5128087;27;20189;-75
2022/09/17 03:10:42;;;;;;;0.90;0.55;;;21.40;83.30;;;;;;5126483;27;20216;-75
2022/09/17 03:13:10;;;;;;;2.75;0.95;;;21.40;83.10;;;;;;5128328;27;20232;-77
2022/09/17 03:15:38;;;;;;;2.58;0.90;;;21.40;83.00;;;;;;5130525;27;20229;-75
2022/09/17 03:18:07;;;;;;;2.35;0.82;;;21.40;83.10;;;;;;5127871;27;20196;-75
2022/09/17 03:20:35;;;;;;;2.70;0.80;;;21.40;82.90;;;;;;5123538;27;20200;-78
2022/09/17 03:23:05;;;;;;;2.55;0.88;;;21.40;82.90;;;;;;5125176;27;20250;-75
2022/09/17 03:25:33;;;;;;;1.35;0.70;;;21.40;82.70;;;;;;5126314;27;20192;-74
2022/09/17 03:28:02;;;;;;;6.40;1.42;;;21.40;82.60;;;;;;5129307;27;20291;-76
2022/09/17 03:30:31;;;;;;;3.97;1.08;;;21.40;83.50;;;;;;5122707;27;20253;-75
2022/09/17 03:32:59;;;;;;;2.13;0.70;;;21.40;82.60;;;;;;5130336;27;20341;-75
2022/09/17 03:35:27;;;;;;;4.13;1.13;;;21.40;82.50;;;;;;5129105;27;20757;-77
2022/09/17 03:37:56;;;;;;;1.27;0.80;;;21.40;82.50;;;;;;5125395;27;20220;-75
2022/09/17 03:40:25;;;;;;;3.60;0.80;;;21.40;82.50;;;;;;5128759;27;20245;-75
2022/09/17 03:42:54;;;;;;;2.10;1.10;;;21.40;82.50;;;;;;5128736;27;20279;-75
2022/09/17 03:45:22;;;;;;;2.60;0.90;;;21.40;82.50;;;;;;5132060;27;20238;-75
2022/09/17 03:47:50;;;;;;;1.58;0.70;;;21.40;82.40;;;;;;5126028;27;20246;-77
2022/09/17 03:50:19;;;;;;;4.40;0.85;;;21.40;82.40;;;;;;5129021;27;20243;-75
2022/09/17 03:52:53;;;;;;;2.22;1.00;;;21.40;82.40;;;;;;5128512;27;20236;-76
2022/09/17 03:55:21;;;;;;;5.25;1.05;;;21.40;82.40;;;;;;5127824;27;20248;-75
2022/09/17 03:57:51;;;;;;;3.30;0.90;;;21.40;82.50;;;;;;5124392;27;20184;-75
2022/09/17 04:00:19;;;;;;;1.27;0.80;;;21.40;82.30;;;;;;5128818;27;20196;-75
2022/09/17 04:02:48;;;;;;;3.22;1.10;;;21.40;82.40;;;;;;5129148;27;20228;-75
2022/09/17 04:05:16;;;;;;;7.57;1.02;;;21.40;82.40;;;;;;5131098;27;20192;-75
2022/09/17 04:07:45;;;;;;;7.72;1.40;;;21.40;82.30;;;;;;5126606;27;20624;-75
2022/09/17 04:10:13;;;;;;;3.22;1.00;;;21.40;82.30;;;;;;5120400;27;20185;-75
2022/09/17 04:12:41;;;;;;;4.97;1.10;;;21.40;82.30;;;;;;5123395;27;20228;-76
2022/09/17 04:15:11;;;;;;;2.78;0.80;;;21.40;82.20;;;;;;5131537;27;20231;-75
2022/09/17 04:17:40;;;;;;;4.60;1.27;;;21.50;82.30;;;;;;5129495;27;20237;-76
2022/09/17 04:20:09;;;;;;;3.50;1.02;;;21.40;82.30;;;;;;5127610;27;20224;-75
2022/09/17 04:22:37;;;;;;;4.97;1.25;;;21.40;82.30;;;;;;5130992;27;20709;-75
2022/09/17 04:25:06;;;;;;;6.05;0.88;;;21.40;82.40;;;;;;5132007;27;20327;-75
2022/09/17 04:27:35;;;;;;;5.18;0.95;;;21.40;82.50;;;;;;5128815;27;20249;-75
2022/09/17 04:30:03;;;;;;;6.03;1.23;;;21.40;82.70;;;;;;5130869;27;20216;-75
2022/09/17 04:32:33;;;;;;;4.35;1.10;;;21.40;82.80;;;;;;5129081;27;20288;-75
2022/09/17 04:35:01;;;;;;;2.83;1.08;;;21.40;82.80;;;;;;5129468;27;20192;-75
2022/09/17 04:37:30;;;;;;;2.00;1.02;;;21.40;82.70;;;;;;5121934;27;20304;-74
2022/09/17 04:39:58;;;;;;;8.68;1.60;;;21.40;82.80;;;;;;5124649;27;20224;-75
2022/09/17 04:42:26;;;;;;;4.15;1.95;;;21.40;83.80;;;;;;5123021;27;20197;-77
2022/09/17 04:44:55;;;;;;;4.57;1.40;;;21.40;83.00;;;;;;5126567;27;20725;-75
2022/09/17 04:47:23;;;;;;;7.35;1.67;;;21.40;83.10;;;;;;5129021;27;20239;-75
2022/09/17 04:49:53;;;;;;;6.28;1.55;;;21.40;83.10;;;;;;5126446;27;20197;-75
2022/09/17 04:52:21;;;;;;;7.07;1.60;;;21.40;83.20;;;;;;5125193;27;20228;-75
2022/09/17 04:54:49;;;;;;;4.45;1.30;;;21.50;83.30;;;;;;5128148;27;20222;-75
2022/09/17 04:57:18;;;;;;;4.35;1.33;;;21.50;83.40;;;;;;5129129;27;20245;-75
2022/09/17 04:59:46;;;;;;;3.50;1.33;;;21.50;84.30;;;;;;5123727;27;20208;-75
2022/09/17 05:02:14;;;;;;;4.65;1.48;;;21.50;83.50;;;;;;5125526;27;20238;-75
2022/09/17 05:04:42;;;;;;;6.95;1.45;;;21.60;83.60;;;;;;5125940;27;20641;-75
2022/09/17 05:07:12;;;;;;;2.50;1.08;;;21.60;83.70;;;;;;5125378;27;20215;-77
2022/09/17 05:09:41;;;;;;;5.15;1.50;;;21.70;83.80;;;;;;5122637;27;20241;-75
2022/09/17 05:12:10;;;;;;;7.50;1.60;;;21.70;83.80;;;;;;5131807;27;20633;-75
2022/09/17 05:14:38;;;;;;;3.40;1.42;;;21.80;83.90;;;;;;5130322;27;20254;-75
2022/09/17 05:17:06;;;;;;;5.05;1.67;;;21.80;83.90;;;;;;5132194;27;20250;-74
2022/09/17 05:19:34;;;;;;;4.85;1.70;;;21.80;83.90;;;;;;5131000;27;20188;-74
2022/09/17 05:22:03;;;;;;;4.38;1.60;;;21.90;84.00;;;;;;5129724;27;20721;-74
2022/09/17 05:24:36;;;;;;;4.70;1.48;;;22.00;83.80;;;;;;5129622;27;20185;-74
2022/09/17 05:27:04;;;;;;;4.47;1.05;;;22.00;83.80;;;;;;5128880;27;20192;-75
2022/09/17 05:29:33;;;;;;;6.25;1.30;;;22.10;83.60;;;;;;5128292;27;20409;-75
2022/09/17 05:32:01;;;;;;;8.10;1.10;;;22.20;83.60;;;;;;5129433;27;20227;-76
2022/09/17 05:34:29;;;;;;;3.85;1.00;;;22.20;83.40;;;;;;5129339;27;20212;-75
2022/09/17 05:36:58;;;;;;;4.82;1.10;;;22.30;83.30;;;;;;5127433;27;20224;-75
2022/09/17 05:39:26;;;;;;;5.70;1.40;;;22.40;83.30;;;;;;5131375;27;20253;-74
2022/09/17 05:41:56;;;;;;;4.57;0.90;;;22.40;83.30;;;;;;5130135;27;20192;-75
2022/09/17 05:44:25;;;;;;;4.53;1.20;;;22.50;83.20;;;;;;5122143;27;20197;-74
2022/09/17 05:46:54;;;;;;;6.68;1.80;;;22.60;83.20;;;;;;5131065;27;20604;-74
2022/09/17 05:49:22;;;;;;;7.85;1.10;;;22.70;83.00;;;;;;5120432;27;20232;-75
2022/09/17 05:51:51;;;;;;;7.72;1.23;;;22.80;82.90;;;;;;5127946;27;20249;-74
2022/09/17 05:54:19;;;;;;;1.63;1.23;;;22.80;82.60;;;;;;5127728;27;20192;-74
2022/09/17 05:56:48;;;;;;;3.80;0.90;;;22.90;82.40;;;;;;5128980;27;20295;-75
2022/09/17 05:59:17;;;;;;;6.05;1.52;;;23.00;82.30;;;;;;5121298;28;20261;-75
2022/09/17 06:01:46;;;;;;;3.40;0.98;;;23.00;82.20;;;;;;5126405;27;20189;-74
2022/09/17 06:04:16;;;;;;;4.07;0.93;;;23.10;82.10;;;;;;5129078;28;20180;-75
2022/09/17 06:06:45;;;;;;;5.90;1.25;;;23.20;82.00;;;;;;5132420;28;20590;-75
2022/09/17 06:09:13;;;;;;;1.23;0.60;;;23.20;81.90;;;;;;5129842;27;20237;-75
2022/09/17 06:11:41;;;;;;;4.40;0.77;;;23.20;81.60;;;;;;5129236;27;20228;-74
2022/09/17 06:14:10;;;;;;;2.35;0.90;;;23.30;81.50;;;;;;5126043;27;20216;-74
2022/09/17 06:16:39;;;;;;;4.00;1.00;;;23.40;81.40;;;;;;5129021;28;20251;-74
2022/09/17 06:19:08;;;;;;;5.40;1.40;;;23.50;81.30;;;;;;5127722;27;20188;-75
2022/09/17 06:21:36;;;;;;;5.20;1.40;;;23.50;81.20;;;;;;5129674;28;20200;-76
2022/09/17 06:24:05;;;;;;;5.10;1.15;;;23.50;81.10;;;;;;5130426;28;20283;-75
2022/09/17 06:26:33;;;;;;;6.03;1.63;;;23.60;81.00;;;;;;5129418;27;20606;-75
2022/09/17 06:29:01;;;;;;;7.13;2.10;;;23.70;81.80;;;;;;5122676;28;20665;-76
2022/09/17 06:31:30;;;;;;;11.98;2.20;;;23.70;80.90;;;;;;5129535;28;20197;-76
2022/09/17 06:34:00;;;;;;;8.57;1.85;;;23.80;80.90;;;;;;5128790;28;20227;-76
2022/09/17 06:36:28;;;;;;;7.03;1.85;;;23.80;80.80;;;;;;5128577;28;20192;-75
2022/09/17 06:38:57;;;;;;;15.60;2.35;;;23.90;80.60;;;;;;5116525;27;20662;-75
2022/09/17 06:41:25;;;;;;;9.70;1.92;;;24.00;80.30;;;;;;5122412;28;20201;-76
2022/09/17 06:43:54;;;;;;;7.20;1.30;;;24.00;80.00;;;;;;5126569;28;20653;-75
2022/09/17 06:46:22;;;;;;;4.95;1.58;;;24.10;79.90;;;;;;5130694;28;20224;-77
2022/09/17 06:48:51;;;;;;;8.77;1.80;;;24.10;79.80;;;;;;5127900;27;20295;-75
2022/09/17 06:51:21;;;;;;;6.50;2.05;;;24.20;79.80;;;;;;5127284;28;20192;-75
2022/09/17 06:53:49;;;;;;;3.72;1.52;;;24.20;79.70;;;;;;5127324;27;20191;-75
2022/09/17 06:56:18;;;;;;;11.07;4.80;;;24.30;79.50;;;;;;5132634;27;20184;-75
2022/09/17 06:58:46;;;;;;;14.73;5.18;;;24.30;79.40;;;;;;5121307;27;20220;-74
2022/09/17 07:01:14;;;;;;;6.97;3.35;;;24.40;79.50;;;;;;5130736;27;20224;-75
2022/09/17 07:03:43;;;;;;;12.73;5.15;;;24.40;79.50;;;;;;5130263;27;20264;-75
2022/09/17 07:06:12;;;;;;;13.00;6.15;;;24.50;79.50;;;;;;5128388;27;20238;-76
2022/09/17 07:08:42;;;;;;;11.70;5.10;;;24.60;79.40;;;;;;5130962;27;20192;-75
2022/09/17 07:11:10;;;;;;;8.57;3.78;;;24.60;79.20;;;;;;5133833;27;21194;-74
2022/09/17 07:13:39;;;;;;;7.88;3.00;;;24.60;79.10;;;;;;5133595;27;20266;-74
2022/09/17 07:16:09;;;;;;;5.80;1.83;;;24.60;78.80;;;;;;5132892;27;20223;-74
2022/09/17 07:18:38;;;;;;;7.75;2.10;;;24.60;78.60;;;;;;5123751;27;20209;-75
2022/09/17 07:21:07;;;;;;;7.30;2.13;;;24.70;78.50;;;;;;5130401;27;20599;-75
2022/09/17 07:23:37;;;;;;;5.28;1.65;;;24.70;78.20;;;;;;5129078;27;20184;-76
2022/09/17 07:26:12;;;;;;;5.40;1.80;;;24.70;78.20;;;;;;5128098;27;20200;-76
2022/09/17 07:28:41;;;;;;;6.05;2.00;;;24.70;78.30;;;;;;5128596;27;20651;-76
2022/09/17 07:31:09;;;;;;;10.88;2.60;;;24.80;78.60;;;;;;5132435;27;20713;-76
2022/09/17 07:33:44;;;;;;;6.40;1.98;;;24.80;78.60;;;;;;5129803;27;20307;-76
2022/09/17 07:36:14;;;;;;;6.78;1.58;;;24.90;78.90;;;;;;5133436;27;20188;-76
2022/09/17 07:38:42;;;;;;;3.22;1.35;;;24.90;78.90;;;;;;5128341;27;20621;-75
2022/09/17 07:41:14;;;;;;;3.97;1.30;;;25.00;78.90;;;;;;5126538;27;20188;-76
2022/09/17 07:43:43;;;;;;;4.68;1.42;;;24.90;79.00;;;;;;5129331;27;20241;-76
2022/09/17 07:46:15;;;;;;;5.40;2.08;;;25.00;79.20;;;;;;5131109;27;20184;-76
2022/09/17 07:48:44;;;;;;;6.13;2.08;;;25.00;79.10;;;;;;5088589;28;20190;-77
2022/09/17 07:51:16;;;;;;;6.05;2.10;;;25.00;79.10;;;;;;5084602;28;20201;-76
2022/09/17 07:53:45;;;;;;;4.68;1.55;;;25.00;79.10;;;;;;5088824;28;20229;-74
2022/09/17 07:56:15;;;;;;;5.68;1.92;;;25.10;79.10;;;;;;5087266;28;20232;-75
2022/09/17 07:58:43;;;;;;;5.28;2.53;;;25.10;79.00;;;;;;5084221;28;20278;-75
2022/09/17 08:01:14;;;;;;;6.50;2.10;;;25.20;79.10;;;;;;5089390;28;20186;-75
2022/09/17 08:03:43;;;;;;;5.82;2.13;;;25.20;79.20;;;;;;5087213;28;20193;-74
2022/09/17 08:06:14;;;;;;;12.90;2.85;;;25.20;79.10;;;;;;5097054;27;20533;-74
2022/09/17 08:08:43;;;;;;;5.07;1.65;;;25.30;79.10;;;;;;5132851;27;20185;-75
2022/09/17 08:11:13;;;;;;;3.85;1.65;;;25.40;79.10;;;;;;5131206;27;20241;-76
2022/09/17 08:13:53;;;;;;;3.22;1.40;;;25.40;78.90;;;;;;5128037;27;20983;-75
2022/09/17 08:16:23;;;;;;;6.28;1.30;;;25.50;78.70;;;;;;5126738;27;20185;-75
2022/09/17 08:18:56;;;;;;;3.67;1.10;;;25.60;78.20;;;;;;5122844;27;20231;-75
2022/09/17 08:21:25;;;;;;;5.55;1.70;;;25.60;77.60;;;;;;5120345;27;20219;-76
2022/09/17 08:23:53;;;;;;;4.90;1.48;;;25.60;77.30;;;;;;5131021;27;20232;-75
2022/09/17 08:26:27;;;;;;;3.83;1.60;;;25.70;77.10;;;;;;5130172;27;20192;-75
2022/09/17 08:28:57;;;;;;;6.82;1.77;;;25.80;76.80;;;;;;5132957;27;20193;-75
2022/09/17 08:31:27;;;;;;;7.70;1.90;;;25.80;76.10;;;;;;5125903;27;20210;-76
2022/09/17 08:33:55;;;;;;;7.18;1.88;;;25.90;75.70;;;;;;5131106;27;20224;-74
2022/09/17 08:36:25;;;;;;;6.10;2.03;;;26.00;75.50;;;;;;5127235;27;20216;-74
2022/09/17 08:38:57;;;;;;;4.35;1.95;;;26.10;74.40;;;;;;5128540;27;20220;-74
2022/09/17 08:41:33;;;;;;;6.45;2.17;;;26.00;73.40;;;;;;5126106;27;20211;-75
2022/09/17 08:44:15;;;;;;;7.25;2.42;;;26.10;73.50;;;;;;5127154;27;20580;-75
2022/09/17 08:46:48;;;;;;;5.93;2.00;;;26.10;73.60;;;;;;5123530;27;20185;-75
2022/09/17 08:49:26;;;;;;;6.78;2.42;;;26.10;73.50;;;;;;5132429;27;20712;-74
2022/09/17 08:52:08;;;;;;;10.45;2.92;;;26.10;72.10;;;;;;5126946;27;20184;-74
2022/09/17 08:54:48;;;;;;;6.45;2.30;;;26.20;71.90;;;;;;5131808;27;20176;-75
2022/09/17 08:57:25;;;;;;;5.75;2.25;;;26.20;71.90;;;;;;5131033;27;20227;-75
2022/09/17 09:00:04;;;;;;;10.60;2.90;;;26.20;71.40;;;;;;5127357;27;20242;-75
2022/09/17 09:02:54;;;;;;;10.32;2.70;;;26.30;71.50;;;;;;5131490;27;20180;-75
2022/09/17 09:05:37;;;;;;;12.02;2.63;;;26.30;71.40;;;;;;5119278;27;20245;-75
2022/09/17 09:08:18;;;;;;;14.95;2.85;;;26.30;71.30;;;;;;5126581;27;20219;-74
2022/09/17 09:10:50;;;;;;;7.05;2.72;;;26.30;71.40;;;;;;5126092;27;20754;-75
2022/09/17 09:13:21;;;;;;;10.80;2.85;;;26.40;71.50;;;;;;5123865;27;20684;-76
2022/09/17 09:15:56;;;;;;;6.82;2.55;;;26.40;71.10;;;;;;5128047;27;20661;-75
2022/09/17 09:18:29;;;;;;;7.70;2.80;;;26.40;70.80;;;;;;5123511;27;20260;-75
2022/09/17 09:21:07;;;;;;;7.63;2.53;;;26.50;70.60;;;;;;5128325;27;20700;-77
2022/09/17 09:23:46;;;;;;;4.80;2.15;;;26.60;71.60;;;;;;5124382;27;20208;-75
2022/09/17 09:26:17;;;;;;;7.22;2.00;;;26.60;71.90;;;;;;5130245;27;20540;-76
2022/09/17 09:29:08;;;;;;;7.15;2.17;;;26.70;72.20;;;;;;5127869;27;20287;-75
2022/09/17 09:32:01;;;;;;;4.38;2.25;;;26.70;72.30;;;;;;5129465;27;20695;-77
2022/09/17 09:34:33;;;;;;;10.65;2.92;;;26.80;72.10;;;;;;5101378;27;20810;-76
2022/09/17 09:37:14;;;;;;;5.75;2.28;;;26.80;72.20;;;;;;5106718;28;20191;-76
2022/09/17 09:39:45;;;;;;;5.72;2.28;;;26.80;72.20;;;;;;5099114;28;20209;-75
2022/09/17 09:42:22;;;;;;;6.15;1.80;;;26.80;71.90;;;;;;5098870;28;20243;-77
2022/09/17 09:44:50;;;;;;;4.07;1.77;;;26.90;71.80;;;;;;5109716;28;20227;-75
2022/09/17 09:47:34;;;;;;;5.15;1.77;;;26.90;71.60;;;;;;5109326;28;20193;-75
2022/09/17 09:50:27;;;;;;;7.03;1.60;;;27.00;70.80;;;;;;5105603;28;20235;-75
2022/09/17 09:53:26;;;;;;;5.05;1.85;;;27.00;70.10;;;;;;5102893;28;20189;-75
2022/09/17 09:56:17;;;;;;;9.60;1.60;;;27.00;70.10;;;;;;5104293;28;20272;-75
2022/09/17 09:58:45;;;;;;;7.30;1.75;;;27.00;69.80;;;;;;5103847;28;20236;-75
2022/09/17 10:01:19;;;;;;;6.55;2.42;;;27.00;70.10;;;;;;5069978;28;20251;-75
2022/09/17 10:03:52;;;;;;;4.07;1.58;;;27.10;70.70;;;;;;5095095;28;20254;-75
2022/09/17 10:06:21;;;;;;;8.43;1.55;;;27.10;71.00;;;;;;5104373;28;20197;-77
2022/09/17 10:09:11;;;;;;;3.72;1.40;;;27.10;71.10;;;;;;5105638;28;20197;-75
2022/09/17 10:11:39;;;;;;;7.07;1.67;;;27.10;70.80;;;;;;5098261;28;20272;-76
2022/09/17 10:14:24;;;;;;;5.72;1.45;;;27.10;70.50;;;;;;5106627;28;20661;-75
2022/09/17 10:17:30;;;;;;;3.13;1.40;;;27.10;70.50;;;;;;5108656;28;20201;-74
2022/09/17 10:20:19;;;;;;;5.45;1.40;;;27.10;70.30;;;;;;5107500;28;20220;-75
2022/09/17 10:22:50;;;;;;;4.38;1.40;;;27.20;70.00;;;;;;5096369;28;20188;-75
2022/09/17 10:25:30;;;;;;;6.55;1.45;;;27.20;70.00;;;;;;5105913;28;20250;-76
2022/09/17 10:28:01;;;;;;;3.08;1.60;;;27.20;69.80;;;;;;5105395;28;20185;-76
2022/09/17 10:30:30;;;;;;;3.47;1.60;;;27.10;69.90;;;;;;5107530;28;20327;-78
2022/09/17 10:33:21;;;;;;;6.68;1.98;;;27.10;70.20;;;;;;5112527;28;20634;-75
2022/09/17 10:36:03;;;;;;;3.45;1.73;;;27.10;70.60;;;;;;5102251;28;20653;-75
2022/09/17 10:38:37;;;;;;;4.65;2.13;;;27.10;70.80;;;;;;5111984;28;20279;-75
2022/09/17 10:41:14;;;;;;;5.78;2.05;;;27.10;70.80;;;;;;5110481;28;20216;-76
2022/09/17 10:43:42;;;;;;;5.70;2.17;;;27.10;71.00;;;;;;5111713;28;21002;-75
2022/09/17 10:46:15;;;;;;;4.10;1.85;;;27.10;71.10;;;;;;5110934;28;20229;-75
2022/09/17 10:48:46;;;;;;;2.90;1.75;;;27.10;70.80;;;;;;5111426;28;20654;-76
2022/09/17 10:51:24;;;;;;;4.72;2.08;;;27.00;70.10;;;;;;5110784;28;20836;-75
2022/09/17 10:54:25;;;;;;;11.13;2.65;;;27.00;70.20;;;;;;5111226;28;20193;-75
2022/09/17 10:56:57;;;;;;;10.13;1.85;;;27.00;70.20;;;;;;5103848;28;20224;-75
2022/09/17 11:00:00;;;;;;;4.43;2.05;;;27.00;70.20;;;;;;5109648;28;20242;-75
2022/09/17 11:03:10;;;;;;;7.50;1.75;;;26.90;70.00;;;;;;5094682;28;20961;-77
2022/09/17 11:05:50;;;;;;;4.38;1.50;;;27.00;70.10;;;;;;5112203;28;20242;-74
2022/09/17 11:08:22;;;;;;;5.22;1.77;;;26.90;69.80;;;;;;5108339;28;20220;-75
2022/09/17 11:11:01;;;;;;;4.15;1.33;;;27.00;69.80;;;;;;5109539;28;20213;-75
2022/09/17 11:13:37;;;;;;;5.18;1.92;;;27.00;69.80;;;;;;5108483;28;20464;-77
2022/09/17 11:16:32;;;;;;;5.53;1.60;;;27.00;69.80;;;;;;5106191;28;20213;-75
2022/09/17 11:19:08;;;;;;;4.63;1.60;;;27.00;69.50;;;;;;5109092;28;20284;-75
2022/09/17 11:21:44;;;;;;;6.80;1.95;;;27.00;69.60;;;;;;5109201;28;20287;-76
2022/09/17 11:24:49;;;;;;;6.07;1.90;;;27.10;69.70;;;;;;5109083;28;20594;-75
2022/09/17 11:27:33;;;;;;;6.40;1.50;;;27.00;69.50;;;;;;5110157;28;20219;-75
2022/09/17 11:30:08;;;;;;;3.58;1.40;;;27.10;69.40;;;;;;5108301;28;20225;-75
2022/09/17 11:33:04;;;;;;;5.53;1.65;;;27.10;69.50;;;;;;5102307;28;20189;-75
2022/09/17 11:35:37;;;;;;;7.32;1.77;;;27.10;69.20;;;;;;5103421;28;20234;-75
2022/09/17 11:38:13;;;;;;;4.32;1.95;;;27.10;69.20;;;;;;5104345;28;20663;-75
2022/09/17 11:40:44;;;;;;;5.95;1.50;;;27.10;69.10;;;;;;5108257;28;20220;-75
2022/09/17 11:43:23;;;;;;;5.72;2.00;;;27.00;68.80;;;;;;5107959;28;20209;-75
2022/09/17 11:46:03;;;;;;;4.18;1.20;;;27.00;68.60;;;;;;5106803;28;20197;-77
2022/09/17 11:48:39;;;;;;;2.75;1.20;;;27.00;68.30;;;;;;5110942;28;20205;-75
2022/09/17 11:51:22;;;;;;;3.35;1.88;;;27.00;68.20;;;;;;5107713;28;20220;-75
2022/09/17 11:53:55;;;;;;;3.05;1.58;;;27.00;68.20;;;;;;5110004;28;20609;-75
2022/09/17 11:56:31;;;;;;;5.32;1.27;;;27.00;68.30;;;;;;5105422;28;20197;-75
2022/09/17 11:59:04;;;;;;;27.38;11.80;;;27.00;68.00;;;;;;5107848;28;20917;-75
2022/09/17 12:01:39;;;;;;;6.13;2.60;;;27.00;68.10;;;;;;5104603;28;20292;-74
2022/09/17 12:04:27;;;;;;;6.90;2.70;;;27.00;68.20;;;;;;5109032;28;20220;-75
2022/09/17 12:07:02;;;;;;;4.85;1.58;;;27.00;68.10;;;;;;5104942;28;20798;-75
2022/09/17 12:09:36;;;;;;;3.22;1.30;;;27.00;67.90;;;;;;5110720;28;20245;-75
2022/09/17 12:12:11;;;;;;;3.45;1.20;;;27.00;67.60;;;;;;5104558;28;20181;-74
2022/09/17 12:15:05;;;;;;;5.88;1.50;;;27.00;67.60;;;;;;5103763;28;20565;-75
2022/09/17 12:17:39;;;;;;;5.15;2.00;;;27.10;67.70;;;;;;5107041;28;20181;-75
2022/09/17 12:20:24;;;;;;;6.20;3.03;;;27.10;67.60;;;;;;5110369;28;20240;-74
2022/09/17 12:22:54;;;;;;;8.20;1.60;;;27.00;67.50;;;;;;5106555;28;20225;-75
2022/09/17 12:25:24;;;;;;;4.53;1.30;;;27.00;67.30;;;;;;5110468;28;20233;-75
2022/09/17 12:27:59;;;;;;;1.92;1.15;;;27.00;67.20;;;;;;5108513;28;20276;-75
2022/09/17 12:30:34;;;;;;;7.43;1.60;;;26.90;67.00;;;;;;5107097;28;20185;-75
2022/09/17 12:33:19;;;;;;;3.72;1.55;;;26.90;67.10;;;;;;5110427;28;20189;-74
2022/09/17 12:36:03;;;;;;;5.05;2.05;;;26.80;67.40;;;;;;5109295;28;20193;-75
2022/09/17 12:39:14;;;;;;;4.10;1.45;;;26.70;67.60;;;;;;5108671;28;20653;-75
2022/09/17 12:41:52;;;;;;;2.92;1.38;;;26.70;67.70;;;;;;5107212;28;20586;-75
2022/09/17 12:44:43;;;;;;;6.05;1.52;;;26.70;68.00;;;;;;5104862;28;20272;-75
2022/09/17 12:47:52;;;;;;;5.53;1.98;;;26.60;68.30;;;;;;5108038;28;20228;-75
2022/09/17 12:50:31;;;;;;;6.65;1.90;;;26.50;68.60;;;;;;5104796;28;20661;-75
2022/09/17 12:53:13;;;;;;;6.32;1.92;;;26.50;69.00;;;;;;5106619;28;20220;-76
2022/09/17 12:56:02;;;;;;;8.02;2.30;;;26.50;69.40;;;;;;5107208;28;20225;-77
2022/09/17 12:58:56;;;;;;;3.80;1.75;;;26.40;69.70;;;;;;5105920;28;20714;-77
2022/09/17 13:01:33;;;;;;;6.05;1.77;;;26.40;70.10;;;;;;5105260;28;20215;-75
2022/09/17 13:04:16;;;;;;;5.75;2.05;;;26.40;70.40;;;;;;5106346;28;20207;-74
2022/09/17 13:07:17;;;;;;;5.78;2.20;;;26.30;70.50;;;;;;5106494;28;20281;-75
2022/09/17 13:10:04;;;;;;;9.00;1.63;;;26.30;71.00;;;;;;5104823;28;20215;-75
2022/09/17 13:12:40;;;;;;;8.15;1.92;;;26.30;71.30;;;;;;5101013;27;20194;-75
2022/09/17 13:15:37;;;;;;;8.35;2.40;;;26.30;71.40;;;;;;5107598;28;20227;-75
2022/09/17 13:18:16;;;;;;;7.90;1.90;;;26.20;71.60;;;;;;5109897;28;20185;-74
2022/09/17 13:21:12;;;;;;;8.48;1.83;;;26.20;71.60;;;;;;5102298;27;20208;-76
2022/09/17 13:23:44;;;;;;;4.85;1.77;;;26.20;71.50;;;;;;5106649;28;20221;-75